Hutchinson County Airport - Borger, Texas, United States - FAA: BGD - ICAO: KBGD - IATA: BGD

 
  Longest Runway: 6,300 feet   Approach Types:    Customs Landing Rights Airport: No   Port of Entry: No

Local Forecast

Overnight (1/18): Rain likely. Mostly cloudy, with a low around 38. Southwest wind around 5 mph. Chance of precipitation is 70%.

Wednesday (1/18): Mostly cloudy through mid morning, then becoming sunny, with a high near 57. South southwest wind 5 to 15 mph.

Wednesday Night (1/18): Mostly clear, with a low around 35. South southwest wind 10 to 15 mph.

Thursday (1/19): Sunny, with a high near 61. Wind chill values between 29 and 39 early. Southwest wind around 5 mph.

Thursday Night (1/19): Mostly clear, with a low around 35. South wind 5 to 15 mph becoming west southwest after midnight.

Friday (1/20): Sunny, with a high near 60. Breezy, with a west southwest wind 15 to 25 mph, with gusts as high as 30 mph.

Friday Night (1/20): Mostly clear, with a low around 35. West southwest wind around 15 mph, with gusts as high as 25 mph.



Current Weather (METAR)

2017/01/18 10:51 KBGD 181051Z AUTO 24004KT 10SM CLR 04/04 A3005 RMK AO2 SLP172 T00440039

BORGER HUTCHINSON CO AIRPORT , TX, United States (KBGD) 35-42N 101-24W 927M Jan 18, 2017 - 05:51 AM EST / 2017.01.18 1051 UTC Wind: from the WSW (240 degrees) at 5 MPH (4 KT):0 Visibility: 10 mile(s):0 Sky conditions: clear Temperature: 39.9 F (4.4 C) Dew Point: 39.0 F (3.9 C) Relative Humidity: 96% Pressure (altimeter): 30.05 in. Hg (1017 hPa) ob: KBGD 181051Z AUTO 24004KT 10SM CLR 04/04 A3005 RMK AO2 SLP172 T00440039 cycle: 11

Terminal Forecast (TAF)